sensor_id;sensor_type;location;lat;lon;timestamp;pressure;altitude;pressure_sealevel;temperature;humidity
49973;BME280;35865;49.798;10.968;2022-09-03T00:01:46;97994.88;;;14.54;68.92
49973;BME280;35865;49.798;10.968;2022-09-03T00:04:18;97987.97;;;14.48;68.91
49973;BME280;35865;49.798;10.968;2022-09-03T00:06:49;97990.72;;;14.37;69.79
49973;BME280;35865;49.798;10.968;2022-09-03T00:09:21;97987.50;;;14.35;70.04
49973;BME280;35865;49.798;10.968;2022-09-03T00:11:54;97979.25;;;14.32;70.21
49973;BME280;35865;49.798;10.968;2022-09-03T00:14:33;97980.13;;;14.22;70.38
49973;BME280;35865;49.798;10.968;2022-09-03T00:17:04;97974.72;;;14.37;69.78
49973;BME280;35865;49.798;10.968;2022-09-03T00:19:36;97977.91;;;14.34;70.08
49973;BME280;35865;49.798;10.968;2022-09-03T00:22:08;97973.66;;;14.33;69.99
49973;BME280;35865;49.798;10.968;2022-09-03T00:24:38;97970.41;;;14.42;70.26
49973;BME280;35865;49.798;10.968;2022-09-03T00:27:10;97972.09;;;14.67;69.26
49973;BME280;35865;49.798;10.968;2022-09-03T00:29:42;97970.13;;;14.83;68.56
49973;BME280;35865;49.798;10.968;2022-09-03T00:32:14;97974.81;;;14.96;68.07
49973;BME280;35865;49.798;10.968;2022-09-03T00:34:44;97962.47;;;15.00;67.58
49973;BME280;35865;49.798;10.968;2022-09-03T00:37:12;97973.16;;;15.00;67.50
49973;BME280;35865;49.798;10.968;2022-09-03T00:39:39;97960.06;;;15.04;67.46
49973;BME280;35865;49.798;10.968;2022-09-03T00:42:18;97961.97;;;14.98;67.40
49973;BME280;35865;49.798;10.968;2022-09-03T00:45:03;97956.41;;;14.95;67.47
49973;BME280;35865;49.798;10.968;2022-09-03T00:47:42;97954.31;;;14.86;67.93
49973;BME280;35865;49.798;10.968;2022-09-03T00:50:17;97965.88;;;14.77;68.56
49973;BME280;35865;49.798;10.968;2022-09-03T00:52:56;97963.34;;;14.61;68.75
49973;BME280;35865;49.798;10.968;2022-09-03T00:55:32;97970.28;;;14.62;68.92
49973;BME280;35865;49.798;10.968;2022-09-03T00:58:21;97977.53;;;14.57;69.44
49973;BME280;35865;49.798;10.968;2022-09-03T01:00:53;97974.06;;;14.51;69.47
49973;BME280;35865;49.798;10.968;2022-09-03T01:03:26;97967.69;;;14.47;69.92
49973;BME280;35865;49.798;10.968;2022-09-03T01:06:06;97982.75;;;14.32;70.15
49973;BME280;35865;49.798;10.968;2022-09-03T01:08:47;97983.81;;;14.26;70.62
49973;BME280;35865;49.798;10.968;2022-09-03T01:11:23;97984.19;;;14.09;71.23
49973;BME280;35865;49.798;10.968;2022-09-03T01:13:58;97979.19;;;13.92;71.76
49973;BME280;35865;49.798;10.968;2022-09-03T01:16:34;97975.22;;;13.79;72.12
49973;BME280;35865;49.798;10.968;2022-09-03T01:19:12;97973.38;;;13.75;72.24
49973;BME280;35865;49.798;10.968;2022-09-03T01:22:00;97980.31;;;13.70;72.57
49973;BME280;35865;49.798;10.968;2022-09-03T01:25:01;97987.47;;;13.80;72.50
49973;BME280;35865;49.798;10.968;2022-09-03T01:27:41;97979.50;;;13.70;72.63
49973;BME280;35865;49.798;10.968;2022-09-03T01:30:14;97984.03;;;13.69;72.95
49973;BME280;35865;49.798;10.968;2022-09-03T01:32:45;97986.22;;;13.62;73.31
49973;BME280;35865;49.798;10.968;2022-09-03T01:35:22;97988.88;;;13.57;73.59
49973;BME280;35865;49.798;10.968;2022-09-03T01:38:01;97983.81;;;13.50;73.67
49973;BME280;35865;49.798;10.968;2022-09-03T01:40:40;97989.44;;;13.44;73.78
49973;BME280;35865;49.798;10.968;2022-09-03T01:43:20;97983.31;;;13.38;74.06
49973;BME280;35865;49.798;10.968;2022-09-03T01:45:52;97987.88;;;13.32;74.12
49973;BME280;35865;49.798;10.968;2022-09-03T01:48:32;97994.25;;;13.26;74.69
49973;BME280;35865;49.798;10.968;2022-09-03T01:51:09;97990.53;;;13.22;74.67
49973;BME280;35865;49.798;10.968;2022-09-03T01:54:01;97986.81;;;13.18;75.17
49973;BME280;35865;49.798;10.968;2022-09-03T01:56:42;97993.22;;;13.07;75.72
49973;BME280;35865;49.798;10.968;2022-09-03T01:59:15;97991.59;;;13.11;75.85
49973;BME280;35865;49.798;10.968;2022-09-03T02:01:51;97989.50;;;13.13;75.89
49973;BME280;35865;49.798;10.968;2022-09-03T02:04:20;97984.69;;;13.05;76.52
49973;BME280;35865;49.798;10.968;2022-09-03T02:06:47;97990.81;;;13.00;76.76
49973;BME280;35865;49.798;10.968;2022-09-03T02:09:14;97981.75;;;12.91;77.26
49973;BME280;35865;49.798;10.968;2022-09-03T02:11:40;97989.50;;;12.92;77.44
49973;BME280;35865;49.798;10.968;2022-09-03T02:14:08;97985.22;;;13.01;77.22
49973;BME280;35865;49.798;10.968;2022-09-03T02:16:36;97984.97;;;12.98;77.38
49973;BME280;35865;49.798;10.968;2022-09-03T02:19:06;97988.44;;;13.09;77.62
49973;BME280;35865;49.798;10.968;2022-09-03T02:21:38;97986.56;;;13.14;77.75
49973;BME280;35865;49.798;10.968;2022-09-03T02:24:06;97987.38;;;13.05;77.58
49973;BME280;35865;49.798;10.968;2022-09-03T02:26:34;97990.03;;;13.05;77.76
49973;BME280;35865;49.798;10.968;2022-09-03T02:29:01;97988.13;;;12.95;77.71
49973;BME280;35865;49.798;10.968;2022-09-03T02:31:28;97983.09;;;12.88;78.20
49973;BME280;35865;49.798;10.968;2022-09-03T02:33:55;97974.31;;;12.82;78.58
49973;BME280;35865;49.798;10.968;2022-09-03T02:36:27;97980.44;;;12.83;78.81
49973;BME280;35865;49.798;10.968;2022-09-03T02:38:55;97978.84;;;12.87;78.97
49973;BME280;35865;49.798;10.968;2022-09-03T02:41:22;97985.22;;;12.91;79.42
49973;BME280;35865;49.798;10.968;2022-09-03T02:43:54;97982.03;;;12.99;79.27
49973;BME280;35865;49.798;10.968;2022-09-03T02:46:25;97983.38;;;12.97;79.28
49973;BME280;35865;49.798;10.968;2022-09-03T02:48:54;97975.38;;;12.97;79.01
49973;BME280;35865;49.798;10.968;2022-09-03T02:51:21;97971.94;;;12.96;78.88
49973;BME280;35865;49.798;10.968;2022-09-03T02:53:49;97976.97;;;12.98;78.92
49973;BME280;35865;49.798;10.968;2022-09-03T02:56:15;97970.84;;;13.02;78.50
49973;BME280;35865;49.798;10.968;2022-09-03T02:58:41;97961.28;;;12.96;78.69
49973;BME280;35865;49.798;10.968;2022-09-03T03:01:08;97967.63;;;13.06;78.60
49973;BME280;35865;49.798;10.968;2022-09-03T03:03:35;97963.13;;;13.06;78.42
49973;BME280;35865;49.798;10.968;2022-09-03T03:06:03;97962.59;;;13.04;78.59
49973;BME280;35865;49.798;10.968;2022-09-03T03:08:31;97960.19;;;13.02;78.52
49973;BME280;35865;49.798;10.968;2022-09-03T03:11:00;97956.47;;;13.09;78.43
49973;BME280;35865;49.798;10.968;2022-09-03T03:13:28;97957.53;;;13.13;78.39
49973;BME280;35865;49.798;10.968;2022-09-03T03:15:55;97961.81;;;13.09;78.17
49973;BME280;35865;49.798;10.968;2022-09-03T03:18:22;97959.13;;;13.09;78.27
49973;BME280;35865;49.798;10.968;2022-09-03T03:20:49;97960.97;;;13.08;78.25
49973;BME280;35865;49.798;10.968;2022-09-03T03:23:15;97962.84;;;13.02;78.20
49973;BME280;35865;49.798;10.968;2022-09-03T03:25:42;97962.84;;;12.97;78.70
49973;BME280;35865;49.798;10.968;2022-09-03T03:28:10;97966.59;;;13.12;78.45
49973;BME280;35865;49.798;10.968;2022-09-03T03:30:38;97964.72;;;13.07;78.61
49973;BME280;35865;49.798;10.968;2022-09-03T03:33:07;97967.91;;;12.99;78.61
49973;BME280;35865;49.798;10.968;2022-09-03T03:35:34;97960.47;;;12.91;78.48
49973;BME280;35865;49.798;10.968;2022-09-03T03:38:01;97970.03;;;12.87;79.00
49973;BME280;35865;49.798;10.968;2022-09-03T03:40:27;97964.47;;;12.83;79.03
49973;BME280;35865;49.798;10.968;2022-09-03T03:42:56;97965.25;;;12.83;79.27
49973;BME280;35865;49.798;10.968;2022-09-03T03:45:24;97972.72;;;12.81;79.05
49973;BME280;35865;49.798;10.968;2022-09-03T03:47:50;97970.59;;;12.73;79.35
49973;BME280;35865;49.798;10.968;2022-09-03T03:50:17;97968.19;;;12.72;79.22
49973;BME280;35865;49.798;10.968;2022-09-03T03:52:44;97974.59;;;12.76;79.25
49973;BME280;35865;49.798;10.968;2022-09-03T03:55:10;97971.38;;;12.74;79.16
49973;BME280;35865;49.798;10.968;2022-09-03T03:57:36;97966.06;;;12.74;79.25
49973;BME280;35865;49.798;10.968;2022-09-03T04:00:04;97959.69;;;12.59;79.67
49973;BME280;35865;49.798;10.968;2022-09-03T04:02:32;97963.09;;;12.49;80.00
49973;BME280;35865;49.798;10.968;2022-09-03T04:04:58;97962.28;;;12.39;80.36
49973;BME280;35865;49.798;10.968;2022-09-03T04:07:25;97958.53;;;12.29;81.12
49973;BME280;35865;49.798;10.968;2022-09-03T04:09:52;97959.06;;;12.21;81.66
49973;BME280;35865;49.798;10.968;2022-09-03T04:12:18;97962.97;;;12.08;82.31
49973;BME280;35865;49.798;10.968;2022-09-03T04:14:45;97964.84;;;12.08;83.15
49973;BME280;35865;49.798;10.968;2022-09-03T04:17:11;97962.69;;;11.99;83.29
49973;BME280;35865;49.798;10.968;2022-09-03T04:19:40;97962.66;;;11.89;83.70
49973;BME280;35865;49.798;10.968;2022-09-03T04:22:06;97962.88;;;11.82;84.37
49973;BME280;35865;49.798;10.968;2022-09-03T04:24:33;97960.22;;;11.77;85.09
49973;BME280;35865;49.798;10.968;2022-09-03T04:26:59;97963.38;;;11.69;85.51
49973;BME280;35865;49.798;10.968;2022-09-03T04:29:26;97964.13;;;11.59;86.15
49973;BME280;35865;49.798;10.968;2022-09-03T04:31:55;97974.19;;;11.52;86.50
49973;BME280;35865;49.798;10.968;2022-09-03T04:34:40;97975.25;;;11.56;86.91
49973;BME280;35865;49.798;10.968;2022-09-03T04:37:07;97975.78;;;11.53;87.25
49973;BME280;35865;49.798;10.968;2022-09-03T04:39:34;97977.09;;;11.50;87.68
49973;BME280;35865;49.798;10.968;2022-09-03T04:42:00;97977.38;;;11.54;87.80
49973;BME280;35865;49.798;10.968;2022-09-03T04:44:27;97974.72;;;11.54;87.92
49973;BME280;35865;49.798;10.968;2022-09-03T04:46:53;97977.38;;;11.54;88.27
49973;BME280;35865;49.798;10.968;2022-09-03T04:49:19;97981.13;;;11.58;88.25
49973;BME280;35865;49.798;10.968;2022-09-03T04:51:47;97979.59;;;11.68;88.08
49973;BME280;35865;49.798;10.968;2022-09-03T04:54:14;97976.41;;;11.71;88.07
49973;BME280;35865;49.798;10.968;2022-09-03T04:56:40;97978.56;;;11.79;87.82
49973;BME280;35865;49.798;10.968;2022-09-03T04:59:08;97985.00;;;11.88;87.75
49973;BME280;35865;49.798;10.968;2022-09-03T05:01:36;97981.84;;;11.96;87.35
49973;BME280;35865;49.798;10.968;2022-09-03T05:04:03;97984.25;;;12.03;87.25
49973;BME280;35865;49.798;10.968;2022-09-03T05:06:30;97986.13;;;12.08;87.25
49973;BME280;35865;49.798;10.968;2022-09-03T05:08:59;97985.38;;;12.23;87.21
49973;BME280;35865;49.798;10.968;2022-09-03T05:11:26;97995.22;;;12.32;86.27
49973;BME280;35865;49.798;10.968;2022-09-03T05:13:56;98000.63;;;12.48;85.60
49973;BME280;35865;49.798;10.968;2022-09-03T05:16:23;97998.50;;;12.65;84.24
49973;BME280;35865;49.798;10.968;2022-09-03T05:18:51;97995.34;;;12.79;83.38
49973;BME280;35865;49.798;10.968;2022-09-03T05:21:18;97992.16;;;12.92;82.81
49973;BME280;35865;49.798;10.968;2022-09-03T05:23:47;98003.34;;;12.99;82.64
49973;BME280;35865;49.798;10.968;2022-09-03T05:26:18;97999.59;;;13.16;81.79
49973;BME280;35865;49.798;10.968;2022-09-03T05:28:45;97991.34;;;13.28;80.86
49973;BME280;35865;49.798;10.968;2022-09-03T05:31:13;97978.28;;;13.31;80.57
49973;BME280;35865;49.798;10.968;2022-09-03T05:33:41;97979.88;;;13.38;80.49
49973;BME280;35865;49.798;10.968;2022-09-03T05:36:10;97984.91;;;13.44;80.08
49973;BME280;35865;49.798;10.968;2022-09-03T05:38:37;97983.00;;;13.55;79.50
49973;BME280;35865;49.798;10.968;2022-09-03T05:41:06;97978.16;;;13.67;78.97
49973;BME280;35865;49.798;10.968;2022-09-03T05:43:35;97973.09;;;13.81;78.92
49973;BME280;35865;49.798;10.968;2022-09-03T05:46:03;97982.66;;;13.98;78.27
49973;BME280;35865;49.798;10.968;2022-09-03T05:48:31;97979.66;;;14.10;77.89
49973;BME280;35865;49.798;10.968;2022-09-03T05:50:59;97984.56;;;14.37;77.55
49973;BME280;35865;49.798;10.968;2022-09-03T05:53:26;97975.75;;;14.81;76.28
49973;BME280;35865;49.798;10.968;2022-09-03T05:55:56;97983.97;;;15.19;75.00
49973;BME280;35865;49.798;10.968;2022-09-03T05:58:23;97980.78;;;15.47;73.21
49973;BME280;35865;49.798;10.968;2022-09-03T06:00:52;97961.75;;;15.53;72.25
49973;BME280;35865;49.798;10.968;2022-09-03T06:03:18;97963.59;;;16.01;70.46
49973;BME280;35865;49.798;10.968;2022-09-03T06:05:49;97970.63;;;16.54;69.12
49973;BME280;35865;49.798;10.968;2022-09-03T06:08:15;97975.50;;;17.04;67.37
49973;BME280;35865;49.798;10.968;2022-09-03T06:10:42;97975.97;;;17.39;66.17
49973;BME280;35865;49.798;10.968;2022-09-03T06:13:08;97965.66;;;17.74;64.28
49973;BME280;35865;49.798;10.968;2022-09-03T06:15:35;97969.97;;;18.03;63.32
49973;BME280;35865;49.798;10.968;2022-09-03T06:18:03;97958.44;;;18.39;61.98
49973;BME280;35865;49.798;10.968;2022-09-03T06:20:30;97970.13;;;18.80;61.40
49973;BME280;35865;49.798;10.968;2022-09-03T06:22:56;97966.16;;;19.00;59.53
49973;BME280;35865;49.798;10.968;2022-09-03T06:25:23;97961.63;;;19.32;59.19
49973;BME280;35865;49.798;10.968;2022-09-03T06:27:50;97947.94;;;19.20;58.08
49973;BME280;35865;49.798;10.968;2022-09-03T06:30:16;97957.72;;;19.16;58.25
49973;BME280;35865;49.798;10.968;2022-09-03T06:32:43;97955.94;;;19.42;57.98
49973;BME280;35865;49.798;10.968;2022-09-03T06:35:11;97956.84;;;19.29;57.45
49973;BME280;35865;49.798;10.968;2022-09-03T06:37:38;97963.97;;;19.65;57.25
49973;BME280;35865;49.798;10.968;2022-09-03T06:40:05;97963.22;;;19.82;57.30
49973;BME280;35865;49.798;10.968;2022-09-03T06:42:35;97960.75;;;20.03;56.62
49973;BME280;35865;49.798;10.968;2022-09-03T06:45:01;97956.03;;;20.18;56.06
49973;BME280;35865;49.798;10.968;2022-09-03T06:47:28;97961.75;;;20.69;54.65
49973;BME280;35865;49.798;10.968;2022-09-03T06:49:54;97968.09;;;20.90;53.63
49973;BME280;35865;49.798;10.968;2022-09-03T06:52:24;97965.09;;;20.57;53.90
49973;BME280;35865;49.798;10.968;2022-09-03T06:54:51;97961.56;;;20.83;53.29
49973;BME280;35865;49.798;10.968;2022-09-03T06:57:18;97967.34;;;21.37;52.56
49973;BME280;35865;49.798;10.968;2022-09-03T06:59:44;97965.00;;;21.27;52.72
49973;BME280;35865;49.798;10.968;2022-09-03T07:02:11;97965.09;;;21.48;52.30
49973;BME280;35865;49.798;10.968;2022-09-03T07:04:37;97966.06;;;21.73;51.69
49973;BME280;35865;49.798;10.968;2022-09-03T07:07:04;97979.25;;;22.13;51.56
49973;BME280;35865;49.798;10.968;2022-09-03T07:09:38;97971.31;;;22.08;50.44
49973;BME280;35865;49.798;10.968;2022-09-03T07:12:06;97968.53;;;21.96;50.60
49973;BME280;35865;49.798;10.968;2022-09-03T07:14:35;97972.50;;;21.60;51.34
49973;BME280;35865;49.798;10.968;2022-09-03T07:17:01;97984.41;;;21.59;51.89
49973;BME280;35865;49.798;10.968;2022-09-03T07:19:28;97980.72;;;21.63;51.70
49973;BME280;35865;49.798;10.968;2022-09-03T07:21:54;97979.28;;;21.75;50.68
49973;BME280;35865;49.798;10.968;2022-09-03T07:24:21;97968.31;;;21.33;50.95
49973;BME280;35865;49.798;10.968;2022-09-03T07:26:49;97967.59;;;21.15;51.18
49973;BME280;35865;49.798;10.968;2022-09-03T07:29:15;97962.97;;;21.15;51.73
49973;BME280;35865;49.798;10.968;2022-09-03T07:31:44;97963.03;;;21.45;51.83
49973;BME280;35865;49.798;10.968;2022-09-03T07:34:12;97950.47;;;21.02;52.10
49973;BME280;35865;49.798;10.968;2022-09-03T07:36:42;97967.06;;;21.69;51.60
49973;BME280;35865;49.798;10.968;2022-09-03T07:39:12;97957.44;;;22.19;50.41
49973;BME280;35865;49.798;10.968;2022-09-03T07:41:39;97961.91;;;22.57;49.68
49973;BME280;35865;49.798;10.968;2022-09-03T07:44:11;97961.69;;;23.16;48.09
49973;BME280;35865;49.798;10.968;2022-09-03T07:46:40;97957.84;;;23.05;48.35
49973;BME280;35865;49.798;10.968;2022-09-03T07:49:07;97943.06;;;22.69;47.57
49973;BME280;35865;49.798;10.968;2022-09-03T07:51:36;97942.72;;;22.07;49.66
49973;BME280;35865;49.798;10.968;2022-09-03T07:54:05;97939.19;;;21.56;50.37
49973;BME280;35865;49.798;10.968;2022-09-03T07:56:33;97968.72;;;22.63;49.86
49973;BME280;35865;49.798;10.968;2022-09-03T07:59:00;97957.41;;;22.70;48.50
49973;BME280;35865;49.798;10.968;2022-09-03T08:01:29;97935.22;;;22.13;48.94
49973;BME280;35865;49.798;10.968;2022-09-03T08:03:57;97958.09;;;22.15;49.29
49973;BME280;35865;49.798;10.968;2022-09-03T08:06:25;97945.00;;;21.28;50.42
49973;BME280;35865;49.798;10.968;2022-09-03T08:08:56;97968.56;;;21.48;50.95
49973;BME280;35865;49.798;10.968;2022-09-03T08:11:23;97969.59;;;21.35;51.23
49973;BME280;35865;49.798;10.968;2022-09-03T08:13:54;97978.16;;;22.06;51.02
49973;BME280;35865;49.798;10.968;2022-09-03T08:16:22;97972.81;;;22.48;49.16
49973;BME280;35865;49.798;10.968;2022-09-03T08:18:50;97975.91;;;22.59;49.10
49973;BME280;35865;49.798;10.968;2022-09-03T08:21:18;97964.09;;;22.42;49.17
49973;BME280;35865;49.798;10.968;2022-09-03T08:23:46;97958.41;;;22.14;49.64
49973;BME280;35865;49.798;10.968;2022-09-03T08:26:14;97972.06;;;22.39;50.31
49973;BME280;35865;49.798;10.968;2022-09-03T08:28:41;97972.41;;;22.79;49.02
49973;BME280;35865;49.798;10.968;2022-09-03T08:31:10;97964.47;;;22.32;49.56
49973;BME280;35865;49.798;10.968;2022-09-03T08:33:37;97962.56;;;22.11;49.73
49973;BME280;35865;49.798;10.968;2022-09-03T08:36:10;97955.09;;;21.78;50.49
49973;BME280;35865;49.798;10.968;2022-09-03T08:38:38;97966.69;;;21.88;50.60
49973;BME280;35865;49.798;10.968;2022-09-03T08:41:11;97981.91;;;22.43;50.08
49973;BME280;35865;49.798;10.968;2022-09-03T08:44:03;97974.69;;;22.90;48.63
49973;BME280;35865;49.798;10.968;2022-09-03T08:46:40;97984.31;;;24.20;47.05
49973;BME280;35865;49.798;10.968;2022-09-03T08:49:12;97973.88;;;24.59;46.30
49973;BME280;35865;49.798;10.968;2022-09-03T08:51:41;97954.47;;;23.91;46.67
49973;BME280;35865;49.798;10.968;2022-09-03T08:54:11;97960.31;;;23.81;47.03
49973;BME280;35865;49.798;10.968;2022-09-03T08:56:40;97948.19;;;23.29;46.62
49973;BME280;35865;49.798;10.968;2022-09-03T08:59:08;97968.44;;;23.93;46.80
49973;BME280;35865;49.798;10.968;2022-09-03T09:01:42;97949.56;;;24.22;45.79
49973;BME280;35865;49.798;10.968;2022-09-03T09:04:23;97959.47;;;24.42;45.44
49973;BME280;35865;49.798;10.968;2022-09-03T09:06:59;97952.69;;;24.24;46.14
49973;BME280;35865;49.798;10.968;2022-09-03T09:09:34;97952.47;;;24.29;46.58
49973;BME280;35865;49.798;10.968;2022-09-03T09:12:13;97949.28;;;25.24;45.22
49973;BME280;35865;49.798;10.968;2022-09-03T09:14:48;97941.56;;;25.74;43.29
49973;BME280;35865;49.798;10.968;2022-09-03T09:17:28;97949.50;;;25.83;43.41
49973;BME280;35865;49.798;10.968;2022-09-03T09:20:05;97947.66;;;26.78;41.69
49973;BME280;35865;49.798;10.968;2022-09-03T09:22:38;97942.00;;;26.86;41.36
49973;BME280;35865;49.798;10.968;2022-09-03T09:25:10;97937.22;;;27.03;40.53
49973;BME280;35865;49.798;10.968;2022-09-03T09:27:46;97927.91;;;27.04;40.28
49973;BME280;35865;49.798;10.968;2022-09-03T09:30:16;97922.81;;;26.79;40.31
49973;BME280;35865;49.798;10.968;2022-09-03T09:32:43;97923.66;;;26.25;41.24
49973;BME280;35865;49.798;10.968;2022-09-03T09:35:12;97910.63;;;26.14;41.21
49973;BME280;35865;49.798;10.968;2022-09-03T09:37:47;97900.19;;;25.65;42.28
49973;BME280;35865;49.798;10.968;2022-09-03T09:40:22;97918.44;;;26.55;41.70
49973;BME280;35865;49.798;10.968;2022-09-03T09:42:50;97916.69;;;26.63;41.61
49973;BME280;35865;49.798;10.968;2022-09-03T09:45:23;97917.41;;;27.26;40.66
49973;BME280;35865;49.798;10.968;2022-09-03T09:47:54;97905.81;;;27.32;39.59
49973;BME280;35865;49.798;10.968;2022-09-03T09:50:21;97900.06;;;27.61;38.71
49973;BME280;35865;49.798;10.968;2022-09-03T09:52:58;97907.84;;;28.46;38.29
49973;BME280;35865;49.798;10.968;2022-09-03T09:55:26;97899.16;;;28.37;38.66
49973;BME280;35865;49.798;10.968;2022-09-03T09:58:03;97891.06;;;28.44;38.04
49973;BME280;35865;49.798;10.968;2022-09-03T10:00:31;97901.56;;;28.76;38.03
49973;BME280;35865;49.798;10.968;2022-09-03T10:02:59;97897.59;;;29.11;37.10
49973;BME280;35865;49.798;10.968;2022-09-03T10:05:27;97897.59;;;29.60;36.69
49973;BME280;35865;49.798;10.968;2022-09-03T10:07:58;97887.78;;;29.51;36.45
49973;BME280;35865;49.798;10.968;2022-09-03T10:10:25;97905.13;;;29.25;37.21
49973;BME280;35865;49.798;10.968;2022-09-03T10:12:56;97880.69;;;28.95;36.63
49973;BME280;35865;49.798;10.968;2022-09-03T10:15:28;97903.84;;;29.56;36.27
49973;BME280;35865;49.798;10.968;2022-09-03T10:18:02;97891.56;;;28.91;37.02
49973;BME280;35865;49.798;10.968;2022-09-03T10:20:37;97879.81;;;28.83;36.77
49973;BME280;35865;49.798;10.968;2022-09-03T10:23:14;97885.78;;;28.59;37.26
49973;BME280;35865;49.798;10.968;2022-09-03T10:25:57;97881.53;;;27.70;37.66
49973;BME280;35865;49.798;10.968;2022-09-03T10:28:29;97877.47;;;27.33;38.54
49973;BME280;35865;49.798;10.968;2022-09-03T10:31:28;97878.38;;;27.18;39.39
49973;BME280;35865;49.798;10.968;2022-09-03T10:34:05;97883.53;;;27.23;39.29
49973;BME280;35865;49.798;10.968;2022-09-03T10:36:38;97883.25;;;27.55;40.01
49973;BME280;35865;49.798;10.968;2022-09-03T10:39:12;97884.19;;;28.58;39.12
49973;BME280;35865;49.798;10.968;2022-09-03T10:41:48;97888.88;;;28.95;37.85
49973;BME280;35865;49.798;10.968;2022-09-03T10:44:28;97882.72;;;29.50;37.14
49973;BME280;35865;49.798;10.968;2022-09-03T10:47:10;97867.84;;;29.44;35.74
49973;BME280;35865;49.798;10.968;2022-09-03T10:49:50;97865.78;;;29.33;35.95
49973;BME280;35865;49.798;10.968;2022-09-03T10:52:26;97873.59;;;29.35;36.89
49973;BME280;35865;49.798;10.968;2022-09-03T10:55:13;97853.34;;;29.36;35.87
49973;BME280;35865;49.798;10.968;2022-09-03T10:57:48;97858.56;;;29.63;35.73
49973;BME280;35865;49.798;10.968;2022-09-03T11:00:17;97847.84;;;29.99;34.74
49973;BME280;35865;49.798;10.968;2022-09-03T11:03:01;97853.81;;;30.22;35.35
49973;BME280;35865;49.798;10.968;2022-09-03T11:05:36;97855.81;;;30.33;34.86
49973;BME280;35865;49.798;10.968;2022-09-03T11:08:09;97837.47;;;30.37;34.00
49973;BME280;35865;49.798;10.968;2022-09-03T11:10:40;97849.59;;;30.43;34.29
49973;BME280;35865;49.798;10.968;2022-09-03T11:13:11;97847.72;;;30.80;32.78
49973;BME280;35865;49.798;10.968;2022-09-03T11:15:44;97844.19;;;30.72;32.86
49973;BME280;35865;49.798;10.968;2022-09-03T11:18:17;97856.72;;;30.84;33.38
49973;BME280;35865;49.798;10.968;2022-09-03T11:20:46;97844.44;;;30.20;34.59
49973;BME280;35865;49.798;10.968;2022-09-03T11:23:15;97846.97;;;29.80;35.08
49973;BME280;35865;49.798;10.968;2022-09-03T11:25:48;97845.06;;;29.88;34.67
49973;BME280;35865;49.798;10.968;2022-09-03T11:28:25;97842.31;;;29.81;34.91
49973;BME280;35865;49.798;10.968;2022-09-03T11:31:05;97837.09;;;29.09;36.52
49973;BME280;35865;49.798;10.968;2022-09-03T11:33:40;97835.47;;;28.97;36.97
49973;BME280;35865;49.798;10.968;2022-09-03T11:36:07;97819.66;;;28.35;37.09
49973;BME280;35865;49.798;10.968;2022-09-03T11:38:34;97836.50;;;28.44;38.47
49973;BME280;35865;49.798;10.968;2022-09-03T11:41:11;97828.47;;;29.00;36.84
49973;BME280;35865;49.798;10.968;2022-09-03T11:43:38;97848.19;;;29.90;36.82
49973;BME280;35865;49.798;10.968;2022-09-03T11:46:08;97838.63;;;30.29;36.16
49973;BME280;35865;49.798;10.968;2022-09-03T11:48:39;97834.75;;;30.58;34.96
49973;BME280;35865;49.798;10.968;2022-09-03T11:51:19;97830.63;;;29.95;35.73
49973;BME280;35865;49.798;10.968;2022-09-03T11:53:54;97829.06;;;29.94;35.74
49973;BME280;35865;49.798;10.968;2022-09-03T11:56:22;97830.38;;;30.25;36.51
49973;BME280;35865;49.798;10.968;2022-09-03T11:59:03;97823.44;;;30.64;34.89
49973;BME280;35865;49.798;10.968;2022-09-03T12:01:32;97813.41;;;29.83;36.29
49973;BME280;35865;49.798;10.968;2022-09-03T12:04:02;97820.06;;;29.89;36.59
49973;BME280;35865;49.798;10.968;2022-09-03T12:06:53;97821.91;;;29.67;36.45
49973;BME280;35865;49.798;10.968;2022-09-03T12:09:48;97828.16;;;29.68;36.54
49973;BME280;35865;49.798;10.968;2022-09-03T12:12:29;97827.75;;;29.62;37.76
49973;BME280;35865;49.798;10.968;2022-09-03T12:15:04;97818.72;;;29.54;37.61
49973;BME280;35865;49.798;10.968;2022-09-03T12:17:37;97827.09;;;29.87;37.97
49973;BME280;35865;49.798;10.968;2022-09-03T12:20:11;97833.38;;;29.98;37.27
49973;BME280;35865;49.798;10.968;2022-09-03T12:22:39;97830.78;;;30.31;36.89
49973;BME280;35865;49.798;10.968;2022-09-03T12:25:07;97829.19;;;30.19;37.32
49973;BME280;35865;49.798;10.968;2022-09-03T12:27:36;97824.53;;;30.34;38.04
49973;BME280;35865;49.798;10.968;2022-09-03T12:30:04;97842.22;;;30.62;38.42
49973;BME280;35865;49.798;10.968;2022-09-03T12:32:39;97814.75;;;29.41;39.00
49973;BME280;35865;49.798;10.968;2022-09-03T12:35:13;97832.34;;;29.47;40.15
49973;BME280;35865;49.798;10.968;2022-09-03T12:37:41;97844.63;;;29.75;39.62
49973;BME280;35865;49.798;10.968;2022-09-03T12:40:16;97822.56;;;29.43;39.41
49973;BME280;35865;49.798;10.968;2022-09-03T12:42:45;97814.53;;;29.12;39.98
49973;BME280;35865;49.798;10.968;2022-09-03T12:45:13;97818.19;;;28.82;40.92
49973;BME280;35865;49.798;10.968;2022-09-03T12:47:42;97813.03;;;28.36;40.70
49973;BME280;35865;49.798;10.968;2022-09-03T12:50:11;97822.94;;;28.17;41.82
49973;BME280;35865;49.798;10.968;2022-09-03T12:52:40;97813.25;;;27.59;42.85
49973;BME280;35865;49.798;10.968;2022-09-03T12:55:20;97824.13;;;27.32;43.65
49973;BME280;35865;49.798;10.968;2022-09-03T12:57:55;97821.53;;;26.66;44.23
49973;BME280;35865;49.798;10.968;2022-09-03T13:00:28;97823.88;;;26.91;44.69
49973;BME280;35865;49.798;10.968;2022-09-03T13:02:59;97816.22;;;26.74;44.72
49973;BME280;35865;49.798;10.968;2022-09-03T13:05:31;97817.91;;;26.82;44.96
49973;BME280;35865;49.798;10.968;2022-09-03T13:08:01;97809.88;;;26.66;45.49
49973;BME280;35865;49.798;10.968;2022-09-03T13:10:31;97813.34;;;26.90;45.30